Time;durP1;ratioP1;P1;durP2;ratioP2;P2;SDS_P1;SDS_P2;PMS_P1;PMS_P2;Temp;Humidity;BMP_temperature;BMP_pressure;BME280_temperature;BME280_humidity;BME280_pressure;Samples;Min_cycle;Max_cycle;Signal;HPM_P1;HPM_P2
2023/06/15 00:01:21;;;;;;;1.85;1.38;;;16.30;99.90;;;;;;5002866;28;20046;-80
2023/06/15 00:03:49;;;;;;;1.90;1.40;;;16.30;99.90;;;;;;4986880;28;20046;-80
2023/06/15 00:06:16;;;;;;;1.80;1.30;;;16.30;99.90;;;;;;4985759;28;20045;-81
2023/06/15 00:08:42;;;;;;;2.10;1.40;;;16.30;99.90;;;;;;5002034;28;20233;-80
2023/06/15 00:11:09;;;;;;;1.48;1.33;;;16.20;99.90;;;;;;5002699;28;20050;-81
2023/06/15 00:13:36;;;;;;;2.03;1.30;;;16.20;99.90;;;;;;5002008;28;20042;-80
2023/06/15 00:16:03;;;;;;;2.15;1.42;;;16.10;99.90;;;;;;5002266;28;20084;-80
2023/06/15 00:18:32;;;;;;;2.15;1.63;;;16.10;99.90;;;;;;4999932;28;20054;-80
2023/06/15 00:21:00;;;;;;;1.77;1.15;;;16.10;99.90;;;;;;5002688;28;20545;-80
2023/06/15 00:23:27;;;;;;;1.45;1.15;;;16.00;99.90;;;;;;5000806;28;20157;-80
2023/06/15 00:25:55;;;;;;;1.92;1.42;;;16.10;99.90;;;;;;4982882;28;20054;-81
2023/06/15 00:28:22;;;;;;;1.58;1.17;;;16.20;99.90;;;;;;4967010;28;20405;-80
2023/06/15 00:30:48;;;;;;;2.08;1.40;;;16.20;99.90;;;;;;5001585;28;20493;-81
2023/06/15 00:33:15;;;;;;;1.52;1.00;;;16.20;99.90;;;;;;5002773;28;20061;-80
2023/06/15 00:35:42;;;;;;;2.33;1.30;;;16.20;99.90;;;;;;5003023;28;20050;-81
2023/06/15 00:38:09;;;;;;;1.70;1.30;;;16.20;99.90;;;;;;5002977;28;20128;-79
2023/06/15 00:40:39;;;;;;;1.60;1.10;;;16.10;99.90;;;;;;5001986;28;20054;-80
2023/06/15 00:43:06;;;;;;;1.75;1.23;;;16.10;99.90;;;;;;5002056;28;20575;-81
2023/06/15 00:45:35;;;;;;;1.20;0.80;;;16.00;99.90;;;;;;5002892;28;20135;-81
2023/06/15 00:48:02;;;;;;;1.67;1.23;;;16.00;99.90;;;;;;4994512;28;20141;-81
2023/06/15 00:50:30;;;;;;;2.33;1.25;;;15.90;99.90;;;;;;4994403;28;20153;-82
2023/06/15 00:53:03;;;;;;;2.03;1.38;;;15.90;99.90;;;;;;5000034;28;20479;-82
2023/06/15 00:55:33;;;;;;;1.60;1.35;;;15.90;99.90;;;;;;5001693;28;20054;-82
2023/06/15 00:58:00;;;;;;;2.00;1.30;;;15.80;99.90;;;;;;5001656;28;20116;-82
2023/06/15 01:00:32;;;;;;;1.80;1.13;;;15.80;99.90;;;;;;4986164;28;20496;-82
2023/06/15 01:02:59;;;;;;;1.92;1.40;;;15.70;99.90;;;;;;4999109;28;20073;-82
2023/06/15 01:05:26;;;;;;;1.38;1.08;;;15.70;99.90;;;;;;4997977;28;20121;-82
2023/06/15 01:07:53;;;;;;;1.65;1.30;;;15.60;99.90;;;;;;5000732;28;20065;-81
2023/06/15 01:10:21;;;;;;;1.83;1.20;;;15.60;99.90;;;;;;4984947;28;20050;-82
2023/06/15 01:12:50;;;;;;;2.05;1.33;;;15.60;99.90;;;;;;5000525;28;20053;-82
2023/06/15 01:15:18;;;;;;;1.80;1.30;;;15.60;99.90;;;;;;5001835;28;20046;-82
2023/06/15 01:17:45;;;;;;;2.28;1.50;;;15.60;99.90;;;;;;5001509;28;20406;-81
2023/06/15 01:20:17;;;;;;;2.10;1.45;;;15.60;99.90;;;;;;5000791;28;20069;-81
2023/06/15 01:23:01;;;;;;;1.85;1.33;;;15.60;99.90;;;;;;4985507;28;20054;-81
2023/06/15 01:25:53;;;;;;;4.07;2.08;;;15.50;99.90;;;;;;4982133;28;20362;-81
2023/06/15 01:28:20;;;;;;;2.47;1.50;;;15.40;99.90;;;;;;4980907;28;20137;-80
2023/06/15 01:30:50;;;;;;;1.63;1.20;;;15.30;99.90;;;;;;4999337;28;20046;-81
2023/06/15 01:33:17;;;;;;;1.75;1.20;;;15.30;99.90;;;;;;5000070;28;20425;-81
2023/06/15 01:35:44;;;;;;;1.92;1.50;;;15.20;99.90;;;;;;5008318;28;20602;-81
2023/06/15 01:38:11;;;;;;;1.63;1.27;;;15.20;99.90;;;;;;5009539;28;20050;-82
2023/06/15 01:40:40;;;;;;;1.88;1.38;;;15.10;99.90;;;;;;5008329;28;20061;-82
2023/06/15 01:43:11;;;;;;;1.50;1.15;;;15.10;99.90;;;;;;5008322;28;20144;-81
2023/06/15 01:45:42;;;;;;;2.08;1.15;;;15.10;99.90;;;;;;5007571;28;20049;-82
2023/06/15 01:48:09;;;;;;;1.90;1.58;;;15.10;99.90;;;;;;4990806;28;20115;-82
2023/06/15 01:50:36;;;;;;;2.30;1.20;;;15.10;99.90;;;;;;4990496;28;20135;-82
2023/06/15 01:53:03;;;;;;;1.92;1.40;;;15.00;99.90;;;;;;5007391;28;20665;-82
2023/06/15 01:55:29;;;;;;;1.50;1.20;;;15.00;99.90;;;;;;5007211;28;20049;-82
2023/06/15 01:57:56;;;;;;;2.30;1.60;;;14.90;99.90;;;;;;5006648;28;20050;-82
2023/06/15 02:00:23;;;;;;;1.80;1.40;;;14.90;99.90;;;;;;5008583;28;20097;-81
2023/06/15 02:02:50;;;;;;;1.95;1.55;;;14.90;99.90;;;;;;4993287;28;20038;-79
2023/06/15 02:05:17;;;;;;;1.63;1.35;;;14.90;99.90;;;;;;5007471;28;20096;-81
2023/06/15 02:07:45;;;;;;;1.75;1.33;;;14.80;99.90;;;;;;5006464;28;20625;-82
2023/06/15 02:10:11;;;;;;;1.98;1.30;;;14.70;99.90;;;;;;5006545;28;20076;-81
2023/06/15 02:12:38;;;;;;;2.30;1.58;;;14.70;99.90;;;;;;5005999;28;20577;-82
2023/06/15 02:15:06;;;;;;;1.98;1.23;;;14.60;99.90;;;;;;4990465;28;20409;-81
2023/06/15 02:17:38;;;;;;;1.90;1.48;;;14.60;99.90;;;;;;5006141;28;20057;-81
2023/06/15 02:20:07;;;;;;;2.33;1.42;;;14.60;99.90;;;;;;5006168;28;20068;-81
2023/06/15 02:22:34;;;;;;;2.25;1.65;;;14.60;99.90;;;;;;5006805;28;20112;-81
2023/06/15 02:25:01;;;;;;;1.90;1.20;;;14.60;99.90;;;;;;4990231;28;20108;-81
2023/06/15 02:27:27;;;;;;;3.17;1.52;;;14.50;99.90;;;;;;5006386;28;20046;-81
2023/06/15 02:29:55;;;;;;;2.22;1.60;;;14.50;99.90;;;;;;5007974;28;20443;-81
2023/06/15 02:32:36;;;;;;;2.33;1.60;;;14.50;99.90;;;;;;5007491;28;20072;-80
2023/06/15 02:35:12;;;;;;;1.58;1.20;;;14.50;99.90;;;;;;5005979;28;20076;-81
2023/06/15 02:37:39;;;;;;;3.33;2.00;;;14.40;99.90;;;;;;5005865;28;20140;-80
2023/06/15 02:40:08;;;;;;;2.20;1.70;;;14.30;99.90;;;;;;5006178;28;20096;-80
2023/06/15 02:42:35;;;;;;;2.40;1.67;;;14.30;99.90;;;;;;4989286;28;20516;-80
2023/06/15 02:45:03;;;;;;;2.33;1.55;;;14.20;99.90;;;;;;4989784;28;20053;-80
2023/06/15 02:47:31;;;;;;;2.85;1.25;;;14.20;99.90;;;;;;5005792;28;20050;-81
2023/06/15 02:49:59;;;;;;;2.80;1.65;;;14.10;99.90;;;;;;5007308;28;20378;-81
2023/06/15 02:52:26;;;;;;;2.20;1.45;;;14.10;99.90;;;;;;5006887;28;20128;-80
2023/06/15 02:54:53;;;;;;;2.88;1.60;;;14.10;99.90;;;;;;5006207;28;20512;-81
2023/06/15 02:57:20;;;;;;;3.42;1.83;;;14.10;99.90;;;;;;5005247;28;20106;-80
2023/06/15 02:59:49;;;;;;;2.83;1.70;;;14.10;99.90;;;;;;5006225;28;20092;-81
2023/06/15 03:02:16;;;;;;;2.50;1.70;;;14.00;99.90;;;;;;5007379;28;20045;-80
2023/06/15 03:04:47;;;;;;;2.78;1.60;;;14.00;99.90;;;;;;5005985;28;20068;-79
2023/06/15 03:07:16;;;;;;;1.80;1.33;;;13.90;99.90;;;;;;5004748;28;20340;-80
2023/06/15 03:09:47;;;;;;;2.25;1.48;;;13.90;99.90;;;;;;5006217;28;20053;-80
2023/06/15 03:12:13;;;;;;;2.10;1.50;;;13.90;99.90;;;;;;5005185;28;20120;-81
2023/06/15 03:14:44;;;;;;;1.50;1.10;;;13.90;99.90;;;;;;5006442;28;20045;-80
2023/06/15 03:17:12;;;;;;;2.08;1.27;;;13.80;99.90;;;;;;5005766;28;20145;-81
2023/06/15 03:19:40;;;;;;;2.28;1.60;;;13.80;99.90;;;;;;5005999;28;20629;-81
2023/06/15 03:22:09;;;;;;;2.65;1.52;;;13.70;99.90;;;;;;4988043;28;20104;-80
2023/06/15 03:24:36;;;;;;;2.25;1.38;;;13.70;99.90;;;;;;4986608;28;20506;-81
2023/06/15 03:27:06;;;;;;;2.58;1.67;;;13.60;99.90;;;;;;5004489;28;20046;-81
2023/06/15 03:29:36;;;;;;;2.05;1.25;;;13.60;99.90;;;;;;5005485;28;20135;-81
2023/06/15 03:32:08;;;;;;;2.58;1.83;;;13.60;99.90;;;;;;5004120;28;20065;-81
2023/06/15 03:34:35;;;;;;;2.83;1.63;;;13.60;99.90;;;;;;5005662;28;20444;-81
2023/06/15 03:37:02;;;;;;;1.60;1.40;;;13.50;99.90;;;;;;5004437;28;20129;-80
2023/06/15 03:39:29;;;;;;;2.25;1.30;;;13.50;99.90;;;;;;5005284;28;20689;-80
2023/06/15 03:41:56;;;;;;;1.92;1.40;;;13.50;99.90;;;;;;5004868;28;20172;-81
2023/06/15 03:44:23;;;;;;;2.45;1.20;;;13.50;99.90;;;;;;5006480;28;20085;-80
2023/06/15 03:46:49;;;;;;;1.70;1.20;;;13.50;99.90;;;;;;5005733;28;20050;-81
2023/06/15 03:49:16;;;;;;;2.40;1.42;;;13.50;99.90;;;;;;5005419;28;20112;-81
2023/06/15 03:51:43;;;;;;;2.50;1.50;;;13.40;99.90;;;;;;4987377;28;20744;-82
2023/06/15 03:54:10;;;;;;;3.03;1.55;;;13.30;99.90;;;;;;5006687;28;20064;-80
2023/06/15 03:56:36;;;;;;;2.10;1.55;;;13.30;99.90;;;;;;4988523;28;20488;-78
2023/06/15 03:59:03;;;;;;;2.10;1.40;;;13.30;99.90;;;;;;4985360;28;20459;-82
2023/06/15 04:01:30;;;;;;;1.80;1.20;;;13.30;99.90;;;;;;4985705;28;20054;-82
2023/06/15 04:03:57;;;;;;;2.33;1.38;;;13.30;99.90;;;;;;4987311;28;20046;-82
2023/06/15 04:06:24;;;;;;;1.90;1.35;;;13.30;99.90;;;;;;5004021;28;20066;-81
2023/06/15 04:08:51;;;;;;;2.15;1.38;;;13.30;99.90;;;;;;5004447;28;20096;-81
2023/06/15 04:11:21;;;;;;;1.50;1.05;;;13.40;99.90;;;;;;5004453;28;20081;-81
2023/06/15 04:13:48;;;;;;;2.20;1.45;;;13.40;99.90;;;;;;5004944;28;20042;-80
2023/06/15 04:16:15;;;;;;;1.95;1.50;;;13.40;99.90;;;;;;5004904;28;20061;-80
2023/06/15 04:18:42;;;;;;;1.85;1.38;;;13.30;99.90;;;;;;5005617;28;20046;-80
2023/06/15 04:21:09;;;;;;;1.60;1.10;;;13.30;99.90;;;;;;5004681;28;20054;-80
2023/06/15 04:23:36;;;;;;;1.75;1.25;;;13.30;99.90;;;;;;4986511;28;20406;-80
2023/06/15 04:26:03;;;;;;;1.80;1.25;;;13.40;99.90;;;;;;4969728;28;20445;-81
2023/06/15 04:28:30;;;;;;;2.25;1.40;;;13.50;99.90;;;;;;4995887;28;20049;-80
2023/06/15 04:31:08;;;;;;;1.67;1.25;;;13.50;99.90;;;;;;5005329;28;20128;-82
2023/06/15 04:33:36;;;;;;;2.20;1.55;;;13.50;99.90;;;;;;5006669;28;20145;-81
2023/06/15 04:36:03;;;;;;;2.05;1.23;;;13.60;99.90;;;;;;5004817;28;20065;-81
2023/06/15 04:38:30;;;;;;;1.55;1.13;;;13.50;99.90;;;;;;5001021;28;20076;-81
2023/06/15 04:40:57;;;;;;;1.50;1.10;;;13.60;99.90;;;;;;4993053;28;20113;-80
2023/06/15 04:43:27;;;;;;;1.55;1.23;;;13.60;99.90;;;;;;4989269;28;20541;-81
2023/06/15 04:45:54;;;;;;;1.65;1.40;;;13.70;99.90;;;;;;4988915;28;20053;-80
2023/06/15 04:48:21;;;;;;;1.90;1.13;;;13.70;99.90;;;;;;4990817;28;20046;-81
2023/06/15 04:50:48;;;;;;;1.70;1.20;;;13.80;99.90;;;;;;4975853;28;20100;-82
2023/06/15 04:53:18;;;;;;;1.85;1.40;;;13.90;99.90;;;;;;5001250;28;20152;-81
2023/06/15 04:55:47;;;;;;;1.95;1.48;;;13.90;99.90;;;;;;4999837;28;20071;-82
2023/06/15 04:58:14;;;;;;;2.50;1.60;;;14.00;99.90;;;;;;4984510;28;20057;-82
2023/06/15 05:00:42;;;;;;;1.42;1.20;;;14.00;99.90;;;;;;5002261;28;20062;-80
2023/06/15 05:03:09;;;;;;;2.28;1.20;;;14.10;99.90;;;;;;4995071;28;20046;-79
2023/06/15 05:05:36;;;;;;;1.35;1.08;;;14.20;99.90;;;;;;4981865;28;20054;-79
2023/06/15 05:08:04;;;;;;;2.10;1.40;;;14.30;99.90;;;;;;4996200;28;20159;-80
2023/06/15 05:10:31;;;;;;;2.03;1.58;;;14.40;99.90;;;;;;4968360;28;20061;-81
2023/06/15 05:13:11;;;;;;;3.05;1.60;;;14.40;99.90;;;;;;5001141;28;20045;-81
2023/06/15 05:15:38;;;;;;;2.58;1.35;;;14.50;99.90;;;;;;4986334;28;20050;-81
2023/06/15 05:18:05;;;;;;;1.95;1.33;;;14.60;99.90;;;;;;4988226;28;20053;-81
2023/06/15 05:20:32;;;;;;;2.17;1.75;;;14.70;99.90;;;;;;5004447;28;20060;-81
2023/06/15 05:23:01;;;;;;;2.33;1.33;;;14.80;99.90;;;;;;5002832;28;20160;-81
2023/06/15 05:25:27;;;;;;;2.17;1.17;;;14.90;99.90;;;;;;4985674;28;22984;-81
2023/06/15 05:27:55;;;;;;;1.75;1.20;;;14.90;99.90;;;;;;4998745;28;20099;-81
2023/06/15 05:30:26;;;;;;;1.60;1.10;;;15.00;99.90;;;;;;4985764;28;20057;-82
2023/06/15 05:32:53;;;;;;;2.35;1.50;;;15.10;99.90;;;;;;4988028;28;20137;-81
2023/06/15 05:35:20;;;;;;;1.88;1.20;;;15.20;99.90;;;;;;5004838;28;20058;-81
2023/06/15 05:37:47;;;;;;;2.15;1.17;;;15.30;99.90;;;;;;5004771;28;20052;-82
2023/06/15 05:40:14;;;;;;;2.88;1.40;;;15.40;99.90;;;;;;5004180;28;20058;-81
2023/06/15 05:42:40;;;;;;;4.47;2.42;;;15.50;99.90;;;;;;4999933;28;20366;-81
2023/06/15 05:45:07;;;;;;;3.15;1.88;;;15.50;99.90;;;;;;4995958;28;20096;-82
2023/06/15 05:47:35;;;;;;;2.97;2.08;;;15.60;99.90;;;;;;4985487;28;20050;-82
2023/06/15 05:50:02;;;;;;;3.67;1.90;;;15.70;99.90;;;;;;5000293;28;20081;-81
2023/06/15 05:52:28;;;;;;;3.65;2.15;;;15.70;99.90;;;;;;4999304;28;20093;-81
2023/06/15 05:54:56;;;;;;;3.22;1.83;;;15.70;99.90;;;;;;5010861;28;20053;-82
2023/06/15 05:57:23;;;;;;;2.67;1.67;;;15.80;99.90;;;;;;5007659;28;20083;-82
2023/06/15 05:59:49;;;;;;;2.60;1.45;;;15.90;99.90;;;;;;5005244;28;20519;-82
2023/06/15 06:02:16;;;;;;;1.73;1.40;;;16.10;99.90;;;;;;5007667;28;20053;-81
2023/06/15 06:04:43;;;;;;;2.38;1.50;;;16.20;99.90;;;;;;5002531;28;20046;-75
2023/06/15 06:07:10;;;;;;;2.35;1.90;;;16.20;99.90;;;;;;5003253;28;20072;-75
2023/06/15 06:09:37;;;;;;;2.42;1.75;;;16.20;99.90;;;;;;5003334;28;20046;-76
2023/06/15 06:12:05;;;;;;;2.70;1.58;;;16.30;99.90;;;;;;5001053;28;20099;-76
2023/06/15 06:14:32;;;;;;;1.98;1.27;;;16.40;99.90;;;;;;5004047;28;20057;-76
2023/06/15 06:16:58;;;;;;;2.20;1.58;;;16.50;99.90;;;;;;5012764;28;20049;-79
2023/06/15 06:19:25;;;;;;;5.00;2.42;;;16.60;99.90;;;;;;4988425;28;20050;-78
2023/06/15 06:21:52;;;;;;;4.18;1.65;;;16.70;99.90;;;;;;5003875;28;20064;-78
2023/06/15 06:24:19;;;;;;;2.80;2.03;;;16.70;99.90;;;;;;5002839;28;20133;-78
2023/06/15 06:26:50;;;;;;;2.83;2.05;;;16.80;99.90;;;;;;5001122;28;20140;-78
2023/06/15 06:29:16;;;;;;;3.85;1.67;;;16.80;99.90;;;;;;4985064;28;20120;-78
2023/06/15 06:31:43;;;;;;;2.00;1.50;;;16.80;99.90;;;;;;5002705;28;20054;-78
2023/06/15 06:34:10;;;;;;;2.20;1.48;;;16.90;99.90;;;;;;4988555;28;20494;-79
2023/06/15 06:36:38;;;;;;;3.08;1.58;;;17.00;99.90;;;;;;5004413;28;20136;-78
2023/06/15 06:39:06;;;;;;;3.92;2.20;;;17.10;99.90;;;;;;5004325;28;20053;-78
2023/06/15 06:41:32;;;;;;;2.20;1.60;;;17.10;99.90;;;;;;4987804;28;20092;-78
2023/06/15 06:43:59;;;;;;;4.05;2.30;;;17.10;99.90;;;;;;5005101;28;20050;-78
2023/06/15 06:46:27;;;;;;;2.65;1.77;;;17.20;99.90;;;;;;4986786;28;20068;-78
2023/06/15 06:48:54;;;;;;;2.70;1.98;;;17.30;99.90;;;;;;4984934;28;20054;-77
2023/06/15 06:51:21;;;;;;;3.17;1.90;;;17.40;99.90;;;;;;5001496;28;20068;-78
2023/06/15 06:53:48;;;;;;;3.63;1.90;;;17.50;99.90;;;;;;5003395;28;20153;-77
2023/06/15 06:56:14;;;;;;;3.60;1.42;;;17.50;99.90;;;;;;5002969;28;20064;-77
2023/06/15 06:58:41;;;;;;;3.45;2.20;;;17.50;99.90;;;;;;5000252;28;20128;-79
2023/06/15 07:01:08;;;;;;;4.65;2.40;;;17.50;99.90;;;;;;5000474;28;20053;-78
2023/06/15 07:03:36;;;;;;;3.45;1.80;;;17.40;99.90;;;;;;5000182;28;20088;-78
2023/06/15 07:06:03;;;;;;;3.83;2.42;;;17.50;99.90;;;;;;4999684;28;20049;-79
2023/06/15 07:08:30;;;;;;;5.10;2.10;;;17.50;99.90;;;;;;4986183;28;20057;-78
2023/06/15 07:11:01;;;;;;;3.40;2.05;;;17.60;99.90;;;;;;5004781;28;20049;-78
2023/06/15 07:13:27;;;;;;;3.35;2.08;;;17.60;99.90;;;;;;5002406;28;20086;-78
2023/06/15 07:15:57;;;;;;;3.08;1.92;;;17.70;99.90;;;;;;5004566;28;20115;-78
2023/06/15 07:18:25;;;;;;;1.75;1.23;;;17.80;99.90;;;;;;4987573;28;20133;-78
2023/06/15 07:20:55;;;;;;;2.70;1.77;;;17.90;99.90;;;;;;4986473;28;20049;-78
2023/06/15 07:23:22;;;;;;;1.67;1.20;;;18.10;99.90;;;;;;4986929;28;20046;-77
2023/06/15 07:25:49;;;;;;;2.63;1.75;;;18.20;99.90;;;;;;4970876;28;20489;-78
2023/06/15 07:28:16;;;;;;;4.18;2.00;;;18.30;99.90;;;;;;4986131;28;20116;-78
2023/06/15 07:30:44;;;;;;;3.05;1.90;;;18.20;99.90;;;;;;4970305;28;20401;-78
2023/06/15 07:33:11;;;;;;;2.42;1.70;;;18.30;99.90;;;;;;4986741;28;20093;-78
2023/06/15 07:35:38;;;;;;;3.00;1.77;;;18.40;99.90;;;;;;4986373;28;20137;-79
2023/06/15 07:38:05;;;;;;;4.82;2.42;;;18.50;99.90;;;;;;5002815;28;20524;-78
2023/06/15 07:40:32;;;;;;;3.70;2.45;;;18.40;99.90;;;;;;4986804;28;20100;-77
2023/06/15 07:42:59;;;;;;;6.10;2.83;;;18.40;99.90;;;;;;4970478;28;20086;-78
2023/06/15 07:45:26;;;;;;;2.90;2.60;;;18.40;99.90;;;;;;5002596;28;20056;-78
2023/06/15 07:47:53;;;;;;;3.20;2.13;;;18.50;99.90;;;;;;4972148;28;20111;-78
2023/06/15 07:50:22;;;;;;;4.00;2.30;;;18.60;99.90;;;;;;4989511;28;20101;-78
2023/06/15 07:52:50;;;;;;;2.75;1.52;;;18.70;99.90;;;;;;4986841;28;20093;-78
2023/06/15 07:55:17;;;;;;;3.28;1.90;;;18.80;99.90;;;;;;5003020;28;20453;-78
2023/06/15 07:57:44;;;;;;;3.72;2.13;;;19.00;99.90;;;;;;5002971;28;20113;-79
2023/06/15 08:00:11;;;;;;;4.30;2.83;;;19.00;99.90;;;;;;5001238;28;20513;-77
2023/06/15 08:02:38;;;;;;;3.90;2.40;;;19.10;99.90;;;;;;4980772;28;20136;-78
2023/06/15 08:05:05;;;;;;;3.78;2.75;;;19.10;99.90;;;;;;4994816;28;20054;-78
2023/06/15 08:07:32;;;;;;;2.60;1.88;;;19.10;99.90;;;;;;4995487;28;20050;-78
2023/06/15 08:09:59;;;;;;;3.35;1.92;;;19.20;99.90;;;;;;4990449;28;20054;-77
2023/06/15 08:12:26;;;;;;;2.92;1.98;;;19.40;99.90;;;;;;4987439;28;20046;-78
2023/06/15 08:14:54;;;;;;;3.67;2.30;;;19.70;99.90;;;;;;4991837;28;20058;-78
2023/06/15 08:17:21;;;;;;;2.72;1.70;;;19.80;99.90;;;;;;4997611;28;20049;-79
2023/06/15 08:19:48;;;;;;;2.97;2.10;;;19.90;99.90;;;;;;5006001;28;20172;-77
2023/06/15 08:22:15;;;;;;;3.13;1.85;;;19.90;99.90;;;;;;5000517;28;20058;-78
2023/06/15 08:24:41;;;;;;;3.55;2.25;;;19.90;99.90;;;;;;4987513;28;20064;-77
2023/06/15 08:27:10;;;;;;;4.15;2.42;;;19.90;99.90;;;;;;4995594;28;20050;-78
2023/06/15 08:29:38;;;;;;;3.25;2.17;;;20.00;99.90;;;;;;4995425;28;20053;-78
2023/06/15 08:32:08;;;;;;;4.45;2.30;;;20.20;99.90;;;;;;4979865;28;20127;-78
2023/06/15 08:34:35;;;;;;;3.75;2.58;;;20.40;99.90;;;;;;4997371;28;20723;-77
2023/06/15 08:37:02;;;;;;;2.75;2.15;;;20.50;99.90;;;;;;4976444;28;20620;-77
2023/06/15 08:39:29;;;;;;;3.30;2.40;;;20.70;99.90;;;;;;4995244;28;20053;-77
2023/06/15 08:41:56;;;;;;;2.88;2.00;;;20.80;99.90;;;;;;4977784;28;20058;-77
2023/06/15 08:44:22;;;;;;;2.40;1.55;;;20.90;99.90;;;;;;4994736;28;20076;-78
2023/06/15 08:46:49;;;;;;;2.97;1.92;;;21.10;99.90;;;;;;4994974;28;20119;-78
2023/06/15 08:49:16;;;;;;;3.03;2.17;;;21.20;99.90;;;;;;4992346;28;20517;-78
2023/06/15 08:51:45;;;;;;;4.60;2.20;;;21.20;99.90;;;;;;4978616;28;20053;-78
2023/06/15 08:54:11;;;;;;;3.33;2.03;;;21.20;99.90;;;;;;4998350;28;20137;-77
2023/06/15 08:56:38;;;;;;;2.88;2.00;;;21.20;99.90;;;;;;4999003;28;20062;-77
2023/06/15 08:59:06;;;;;;;3.03;1.85;;;21.30;99.90;;;;;;4998659;28;20050;-78
2023/06/15 09:01:33;;;;;;;3.00;2.00;;;21.30;99.90;;;;;;5000213;28;20050;-78
2023/06/15 09:04:00;;;;;;;2.80;1.77;;;21.50;99.90;;;;;;4984810;28;20493;-78
2023/06/15 09:06:27;;;;;;;2.78;1.85;;;21.60;99.90;;;;;;5001057;28;20056;-78
2023/06/15 09:08:54;;;;;;;5.75;2.53;;;21.70;99.90;;;;;;5001738;28;20065;-78
2023/06/15 09:11:22;;;;;;;3.75;2.03;;;21.70;99.90;;;;;;5001402;28;20080;-77
2023/06/15 09:13:55;;;;;;;3.05;2.00;;;21.60;99.90;;;;;;4984354;28;20060;-78
2023/06/15 09:16:22;;;;;;;4.57;2.25;;;21.70;99.90;;;;;;4985907;28;20591;-78
2023/06/15 09:18:51;;;;;;;3.70;1.70;;;21.90;99.90;;;;;;4985106;28;20575;-77
2023/06/15 09:21:21;;;;;;;2.65;2.08;;;22.00;99.90;;;;;;5001999;28;20049;-79
2023/06/15 09:23:48;;;;;;;3.00;2.10;;;22.20;99.90;;;;;;4998908;28;20042;-78
2023/06/15 09:26:22;;;;;;;2.92;2.25;;;22.30;99.90;;;;;;4998568;28;20060;-78
2023/06/15 09:28:50;;;;;;;3.47;1.88;;;22.40;99.90;;;;;;4997307;28;20054;-78
2023/06/15 09:31:32;;;;;;;2.40;1.70;;;22.50;99.90;;;;;;4997317;28;20104;-79
2023/06/15 09:34:03;;;;;;;2.65;1.90;;;22.70;99.90;;;;;;4997978;28;20544;-78
2023/06/15 09:36:44;;;;;;;3.33;2.05;;;22.70;99.90;;;;;;5000784;28;20053;-78
2023/06/15 09:39:12;;;;;;;3.58;2.20;;;22.80;99.90;;;;;;5001564;28;20050;-79
2023/06/15 09:41:51;;;;;;;4.15;2.50;;;22.90;99.90;;;;;;5000976;28;20050;-79
2023/06/15 09:44:21;;;;;;;2.63;2.20;;;23.00;99.90;;;;;;5002070;28;20057;-78
2023/06/15 09:46:51;;;;;;;2.88;2.17;;;23.00;99.00;;;;;;5001217;28;20346;-79
2023/06/15 09:49:28;;;;;;;2.78;2.05;;;23.00;99.20;;;;;;5001462;28;20133;-79
2023/06/15 09:51:55;;;;;;;3.47;2.28;;;23.10;98.90;;;;;;5000147;28;20144;-79
2023/06/15 09:54:23;;;;;;;1.98;1.38;;;23.20;98.60;;;;;;5006528;28;20054;-79
2023/06/15 09:56:51;;;;;;;2.88;1.60;;;23.30;98.30;;;;;;5003836;28;20057;-79
2023/06/15 09:59:18;;;;;;;4.15;2.40;;;23.40;98.40;;;;;;5004575;28;20650;-79
2023/06/15 10:01:46;;;;;;;3.50;1.80;;;23.50;97.80;;;;;;5004530;28;20054;-79
2023/06/15 10:04:13;;;;;;;3.25;2.50;;;23.60;98.10;;;;;;5004877;28;20490;-79
2023/06/15 10:06:41;;;;;;;2.70;1.60;;;23.60;97.60;;;;;;5003826;28;20061;-79
2023/06/15 10:09:09;;;;;;;4.00;2.05;;;23.70;96.70;;;;;;5005367;28;20076;-79
2023/06/15 10:11:37;;;;;;;2.50;1.50;;;23.70;96.60;;;;;;5005497;28;20057;-78
2023/06/15 10:14:09;;;;;;;2.08;1.38;;;23.90;96.70;;;;;;5005082;28;20681;-77
2023/06/15 10:16:37;;;;;;;5.07;1.75;;;24.00;96.20;;;;;;5004746;28;20128;-79
2023/06/15 10:19:05;;;;;;;1.95;1.45;;;24.10;96.10;;;;;;4988994;28;20077;-79
2023/06/15 10:21:35;;;;;;;3.13;2.08;;;24.30;96.20;;;;;;4987418;28;20088;-80
2023/06/15 10:24:10;;;;;;;3.63;2.00;;;24.50;95.30;;;;;;4987438;28;20054;-80
2023/06/15 10:26:37;;;;;;;2.13;1.40;;;24.60;93.90;;;;;;5000911;28;20518;-79
2023/06/15 10:29:08;;;;;;;2.67;1.60;;;24.80;94.60;;;;;;5002936;28;20378;-79
2023/06/15 10:31:51;;;;;;;4.50;1.40;;;25.00;94.00;;;;;;4988279;28;20049;-80
2023/06/15 10:34:38;;;;;;;;;;;25.10;94.20;;;;;;5000791;28;20100;-79
2023/06/15 10:37:26;;;;;;;2.42;1.77;;;25.20;93.20;;;;;;5013872;28;19929;-79
2023/06/15 10:39:52;;;;;;;1.95;1.60;;;25.40;91.50;;;;;;4997625;28;20549;-79
2023/06/15 10:42:19;;;;;;;2.15;1.60;;;25.50;91.60;;;;;;4981240;28;20050;-79
2023/06/15 10:44:46;;;;;;;2.05;1.23;;;25.70;91.20;;;;;;4999207;28;20164;-78
2023/06/15 10:47:14;;;;;;;2.30;1.50;;;25.80;90.40;;;;;;4997508;28;20504;-78
2023/06/15 10:49:50;;;;;;;2.03;1.67;;;25.90;90.40;;;;;;4997783;28;20112;-78
2023/06/15 10:52:17;;;;;;;2.95;1.48;;;26.10;90.10;;;;;;4996355;28;20206;-78
2023/06/15 10:54:44;;;;;;;2.60;1.45;;;26.20;88.70;;;;;;4999229;28;20109;-78
2023/06/15 10:57:15;;;;;;;1.80;1.38;;;26.40;90.10;;;;;;4997847;28;20057;-78
2023/06/15 10:59:49;;;;;;;2.42;1.65;;;26.50;90.30;;;;;;4967999;28;20853;-78
2023/06/15 11:02:29;;;;;;;2.00;1.70;;;26.50;87.00;;;;;;4999435;28;20393;-79
2023/06/15 11:05:08;;;;;;;2.30;1.83;;;26.60;88.50;;;;;;5000266;28;20481;-79
2023/06/15 11:07:43;;;;;;;2.20;1.65;;;26.60;86.90;;;;;;5001047;28;20057;-79
2023/06/15 11:10:28;;;;;;;2.28;1.50;;;26.80;85.30;;;;;;5003054;28;20132;-78
2023/06/15 11:13:03;;;;;;;2.78;1.35;;;27.10;85.40;;;;;;4970155;28;20802;-78
2023/06/15 11:15:36;;;;;;;2.13;1.48;;;27.20;84.20;;;;;;4986613;28;20046;-79
2023/06/15 11:18:13;;;;;;;3.58;1.25;;;27.50;85.10;;;;;;4961729;28;20050;-78
2023/06/15 11:20:44;;;;;;;1.42;1.00;;;27.90;83.20;;;;;;4990171;28;20042;-79
2023/06/15 11:23:18;;;;;;;1.50;1.10;;;28.20;81.70;;;;;;4997698;28;20416;-79
2023/06/15 11:25:46;;;;;;;1.52;1.20;;;28.50;81.50;;;;;;4985179;28;20052;-78
2023/06/15 11:28:20;;;;;;;2.53;1.63;;;28.70;80.40;;;;;;4998781;28;20053;-79
2023/06/15 11:31:03;;;;;;;1.58;1.20;;;28.60;77.90;;;;;;4993743;28;20088;-78
2023/06/15 11:33:32;;;;;;;3.80;1.60;;;28.60;77.70;;;;;;4984361;28;20089;-80
2023/06/15 11:36:09;;;;;;;1.33;1.23;;;28.50;77.10;;;;;;5002352;28;20092;-78
2023/06/15 11:38:36;;;;;;;1.88;1.63;;;28.60;77.70;;;;;;4996705;28;20139;-79
2023/06/15 11:41:04;;;;;;;1.77;1.30;;;28.80;76.20;;;;;;4986194;28;20037;-78
2023/06/15 11:43:37;;;;;;;2.47;1.60;;;28.90;76.40;;;;;;4973799;28;20062;-78
2023/06/15 11:46:04;;;;;;;2.17;1.35;;;28.90;75.80;;;;;;4999131;28;20120;-79
2023/06/15 11:48:31;;;;;;;2.03;1.15;;;28.90;75.50;;;;;;5002799;28;20046;-78
2023/06/15 11:50:57;;;;;;;1.30;1.15;;;29.30;74.70;;;;;;5002206;28;20062;-78
2023/06/15 11:53:25;;;;;;;1.67;1.27;;;29.50;74.90;;;;;;5001844;28;20057;-79
2023/06/15 11:55:51;;;;;;;1.60;1.30;;;29.60;73.80;;;;;;5002139;28;20390;-77
2023/06/15 11:58:18;;;;;;;1.40;1.17;;;29.50;73.20;;;;;;5001686;28;20118;-79
2023/06/15 12:00:45;;;;;;;2.25;1.33;;;29.70;74.00;;;;;;5002130;28;20065;-80
2023/06/15 12:03:12;;;;;;;1.52;1.30;;;29.60;73.90;;;;;;4990545;28;20081;-79
2023/06/15 12:05:39;;;;;;;1.60;1.23;;;29.90;73.60;;;;;;4967929;28;20108;-79
2023/06/15 12:08:09;;;;;;;1.20;1.00;;;30.40;73.50;;;;;;4985104;28;20078;-79
2023/06/15 12:10:37;;;;;;;1.10;1.00;;;30.90;72.50;;;;;;5001426;28;20050;-80
2023/06/15 12:13:10;;;;;;;1.20;1.10;;;31.10;72.20;;;;;;5000413;28;20061;-79
2023/06/15 12:15:39;;;;;;;1.48;1.15;;;31.10;71.70;;;;;;4999600;28;20084;-79
2023/06/15 12:18:09;;;;;;;1.85;1.10;;;30.90;71.50;;;;;;4991933;28;20492;-80
2023/06/15 12:20:37;;;;;;;0.98;0.85;;;31.30;70.80;;;;;;4999533;28;20056;-80
2023/06/15 12:23:06;;;;;;;0.85;0.75;;;31.70;69.70;;;;;;4998268;28;20057;-79
2023/06/15 12:25:46;;;;;;;1.27;0.80;;;32.00;69.40;;;;;;4998863;28;20053;-80
2023/06/15 12:28:13;;;;;;;1.65;1.10;;;32.00;70.30;;;;;;4985170;28;20494;-80
2023/06/15 12:30:40;;;;;;;2.28;1.20;;;32.20;69.70;;;;;;4995535;28;20047;-80
2023/06/15 12:33:23;;;;;;;1.00;0.90;;;32.30;69.50;;;;;;4997748;28;20109;-82
2023/06/15 12:35:50;;;;;;;2.05;1.40;;;32.40;68.40;;;;;;4997982;28;20405;-80
2023/06/15 12:38:17;;;;;;;1.10;1.00;;;32.20;68.90;;;;;;4982306;28;20076;-80
2023/06/15 12:40:44;;;;;;;3.22;1.27;;;32.20;69.30;;;;;;4993732;28;20137;-80
2023/06/15 12:43:11;;;;;;;1.45;1.15;;;32.30;68.10;;;;;;5016072;28;20053;-80
2023/06/15 12:45:38;;;;;;;1.10;0.90;;;32.20;68.50;;;;;;4997302;28;20104;-80
2023/06/15 12:48:05;;;;;;;1.30;1.00;;;32.40;70.70;;;;;;4998476;28;20069;-79
2023/06/15 12:50:32;;;;;;;1.58;1.10;;;32.50;69.50;;;;;;5003679;28;20083;-80
2023/06/15 12:52:59;;;;;;;1.27;1.10;;;32.60;69.00;;;;;;5000360;28;20547;-80
2023/06/15 12:55:26;;;;;;;1.13;0.90;;;33.00;69.00;;;;;;5002066;28;20078;-79